Jsp Bora — V2CQ4 — position and weather

sailwx.info

Track history (hours):
 
Tides and Currents Weather Stations Pressure Air Temp Water Temp Dewpoint Dewpoint Depression Visibility Wind Speed Wind Dir Waves Ship Positions

Jsp Bora

Last reported at 2018-Jan-23 02:05 UTC. Time now 2018-Jan-23 13:56 UTC.
Position N 57°48' E 010°15'.

Length 148 m; draft 8.5 m.

Type: Ship (hazmat cat A). MMSI: 305079000.

Date/timePositionNaut miles runAvg speedWind from/ knotsBaromVisibWave heightAir tempDewpointWater temp
2018-Jan-23 02:05N 57°48' E 010°15'113.1
2018-Jan-23 02:00N 57°48' E 010°17'713.5
2018-Jan-23 01:30N 57°50' E 010°29'713.9
2018-Jan-23 01:00N 57°49' E 010°42'713.7
2018-Jan-23 00:30N 57°47' E 010°54'714.8
2018-Jan-23 00:00N 57°44' E 011°06'714.9
2018-Jan-22 23:30N 57°40' E 011°19'714.5
2018-Jan-22 23:00N 57°37' E 011°31'611.0
2018-Jan-22 22:30N 57°38' E 011°41'612.7
2018-Jan-22 22:00N 57°41' E 011°51'0 0.9
2018-Jan-22 21:30N 57°41' E 011°52'0 0.0
2018-Jan-22 21:00N 57°41' E 011°52'0 0.0
2018-Jan-22 20:31N 57°41' E 011°52'0 0.0
2018-Jan-22 20:00N 57°41' E 011°52'0 0.0
2018-Jan-22 19:30N 57°41' E 011°52'0 0.0
2018-Jan-22 19:00N 57°41' E 011°52'0 0.0
2018-Jan-22 18:31N 57°41' E 011°52'0 0.0
2018-Jan-22 18:01N 57°41' E 011°52'0 0.0
2018-Jan-22 17:30N 57°41' E 011°52'0 0.0
2018-Jan-22 17:00N 57°41' E 011°52'0 0.0
2018-Jan-22 16:30N 57°41' E 011°52'0 0.0
2018-Jan-22 16:00N 57°41' E 011°52'0 0.0
2018-Jan-22 15:30N 57°41' E 011°52'0 0.0
2018-Jan-22 15:00N 57°41' E 011°52'0 0.0
2018-Jan-22 14:30N 57°41' E 011°52'0 0.0
2018-Jan-22 14:00N 57°41' E 011°52'0 0.0
2018-Jan-22 13:30N 57°41' E 011°52'0 0.0
2018-Jan-22 13:00N 57°41' E 011°52'0 0.0
2018-Jan-22 12:30N 57°41' E 011°52'0 0.0
2018-Jan-22 12:00N 57°41' E 011°52'0 0.0
2018-Jan-22 11:30N 57°41' E 011°52'0 0.0
2018-Jan-22 11:00N 57°41' E 011°52'0 0.0
2018-Jan-22 10:30N 57°41' E 011°52'0 0.0
2018-Jan-22 10:00N 57°41' E 011°52'0 0.0
2018-Jan-22 09:30N 57°41' E 011°52'0 0.0
2018-Jan-22 08:57N 57°41' E 011°52'0 0.0
2018-Jan-22 08:27N 57°41' E 011°52'0 0.0
2018-Jan-22 07:57N 57°41' E 011°52'0 0.0
2018-Jan-22 07:27N 57°41' E 011°52'0 0.0
2018-Jan-22 06:57N 57°41' E 011°52'0 0.0
2018-Jan-22 06:27N 57°41' E 011°52'0 0.0
2018-Jan-22 05:57N 57°41' E 011°52'0 0.0
2018-Jan-22 05:30N 57°41' E 011°52'1 2.8
2018-Jan-22 05:00N 57°41' E 011°49'612.6
2018-Jan-22 04:30N 57°37' E 011°40'5 9.4
2018-Jan-22 04:00N 57°32' E 011°38'510.3
2018-Jan-22 03:30N 57°27' E 011°37'510.5
2018-Jan-22 03:00N 57°22' E 011°37'510.5
2018-Jan-22 02:30N 57°17' E 011°36'510.1
2018-Jan-22 02:00N 57°12' E 011°38'510.4
2018-Jan-22 01:30N 57°07' E 011°41'510.7
2018-Jan-22 01:00N 57°02' E 011°44'610.6
2018-Jan-22 00:29N 56°56' E 011°48'610.4
2018-Jan-21 23:54N 56°51' E 011°51'66 8.2
2018-Jan-21 15:54N 56°07' E 010°22'5 3.7
2018-Jan-21 14:38N 56°09' E 010°14'0 0.1
2018-Jan-21 14:29N 56°09' E 010°14'0 0.0
2018-Jan-21 08:08N 56°09' E 010°14'0 0.0
2018-Jan-21 07:50N 56°09' E 010°14'0 0.1
2018-Jan-21 07:26N 56°09' E 010°14'0 0.3
2018-Jan-21 06:59N 56°09' E 010°14'0 0.3
2018-Jan-21 06:25N 56°09' E 010°14'0 0.0
2018-Jan-20 21:43N 56°09' E 010°14'0 0.7
2018-Jan-20 21:31N 56°09' E 010°14'4 7.7
2018-Jan-20 21:00N 56°08' E 010°21'914.2
2018-Jan-20 20:22N 56°04' E 010°36'6511.3
2018-Jan-20 14:35N 56°58' E 011°42'214.1
2018-Jan-20 14:29N 56°60' E 011°41'713.9
2018-Jan-20 14:00N 57°06' E 011°37'713.5
2018-Jan-20 13:30N 57°12' E 011°34'714.0
2018-Jan-20 13:00N 57°19' E 011°29'714.1
2018-Jan-20 12:31N 57°25' E 011°24'713.0
2018-Jan-20 12:00N 57°31' E 011°18'613.0
2018-Jan-20 11:30N 57°35' E 011°09'713.1
2018-Jan-20 11:00N 57°40' E 010°60'713.9
2018-Jan-20 10:30N 57°44' E 010°49'613.0
2018-Jan-20 10:00N 57°46' E 010°38'815.2
2018-Jan-20 09:30N 57°45' E 010°24'714.7
2018-Jan-20 09:00N 57°42' E 010°11'14914.1
2018-Jan-19 22:27N 55°48' E 007°17'714.1
2018-Jan-19 21:59N 55°42' E 007°13'714.2
2018-Jan-19 21:30N 55°36' E 007°10'714.2
2018-Jan-19 21:00N 55°29' E 007°06'713.9
2018-Jan-19 20:30N 55°22' E 007°04'713.8
2018-Jan-19 20:00N 55°15' E 007°04'714.0
2018-Jan-19 19:30N 55°08' E 007°03'714.0
2018-Jan-19 19:01N 55°01' E 007°03'714.3
2018-Jan-19 18:30N 54°54' E 007°04'714.4
2018-Jan-19 18:01N 54°47' E 007°04'4414.0
2018-Jan-19 14:53N 54°06' E 007°33'714.3
2018-Jan-19 14:25N 54°01' E 007°39'613.9
2018-Jan-19 13:58N 53°55' E 007°43'612.7
2018-Jan-19 13:30N 53°52' E 007°53'612.6
2018-Jan-19 13:01N 53°51' E 008°03'713.0
2018-Jan-19 12:30N 53°46' E 008°11'612.6
2018-Jan-19 12:00N 53°42' E 008°19'612.0
2018-Jan-19 11:31N 53°38' E 008°26'4 7.4
2018-Jan-19 10:59N 53°36' E 008°31'0 0.0
2018-Jan-19 10:29N 53°36' E 008°31'0 0.0
2018-Jan-19 09:59N 53°36' E 008°31'0 0.0
2018-Jan-19 09:29N 53°36' E 008°31'0 0.0
2018-Jan-19 08:59N 53°36' E 008°31'0 0.0
2018-Jan-19 08:29N 53°36' E 008°31'0 0.0
2018-Jan-19 07:59N 53°36' E 008°31'0 0.0
2018-Jan-19 07:29N 53°36' E 008°31'0 0.0
2018-Jan-19 06:59N 53°36' E 008°31'0 0.0
2018-Jan-19 06:29N 53°36' E 008°31'0 0.0
2018-Jan-19 05:59N 53°36' E 008°31'0 0.0
2018-Jan-19 05:29N 53°36' E 008°31'0 0.0
2018-Jan-19 04:59N 53°36' E 008°31'0 0.0
2018-Jan-19 04:29N 53°36' E 008°31'0 0.0
2018-Jan-19 03:59N 53°36' E 008°31'0 0.0
2018-Jan-19 03:29N 53°36' E 008°31'0 0.0
2018-Jan-19 02:59N 53°36' E 008°31'0 0.0
2018-Jan-19 02:29N 53°36' E 008°31'0 0.0
2018-Jan-19 01:59N 53°36' E 008°31'0 0.0
2018-Jan-19 01:30N 53°36' E 008°31'3 4.9
2018-Jan-19 00:59N 53°37' E 008°28'715.1
2018-Jan-19 00:31N 53°42' E 008°19'815.2
2018-Jan-19 00:00N 53°47' E 008°09'714.6
2018-Jan-18 23:30N 53°51' E 007°59'510.4
2018-Jan-18 23:00N 53°54' E 007°52'0 0.1
2018-Jan-18 22:26N 53°54' E 007°52'0 0.0
2018-Jan-18 21:56N 53°54' E 007°52'0 0.0
2018-Jan-18 21:26N 53°54' E 007°52'0 0.0
2018-Jan-18 20:56N 53°54' E 007°52'0 0.1
2018-Jan-18 20:26N 53°54' E 007°52'0 0.0
2018-Jan-18 19:56N 53°54' E 007°52'0 0.0
2018-Jan-18 19:26N 53°54' E 007°52'0 0.0
2018-Jan-18 18:56N 53°54' E 007°52'0 0.0
2018-Jan-18 18:26N 53°54' E 007°52'0 0.0
2018-Jan-18 17:56N 53°54' E 007°52'0 0.1
2018-Jan-18 17:26N 53°54' E 007°52'0 0.0
2018-Jan-18 16:56N 53°54' E 007°52'0 0.1
2018-Jan-18 16:26N 53°54' E 007°52'0 0.3
2018-Jan-18 15:56N 53°54' E 007°51'0 0.0
2018-Jan-18 15:26N 53°54' E 007°51'0 0.1
2018-Jan-18 14:08N 53°54' E 007°51'0 0.0
2018-Jan-18 13:44N 53°54' E 007°51'0 0.0
2018-Jan-18 13:20N 53°54' E 007°51'0 0.1
2018-Jan-18 12:50N 53°54' E 007°51'0 0.1
2018-Jan-18 12:08N 53°54' E 007°51'0 0.1
2018-Jan-18 11:44N 53°54' E 007°51'0 0.2
2018-Jan-18 11:20N 53°54' E 007°51'0 0.0
2018-Jan-18 10:50N 53°54' E 007°51'0 0.0
2018-Jan-18 10:26N 53°54' E 007°51'0 0.2
2018-Jan-18 09:50N 53°54' E 007°51'0 0.0
2018-Jan-18 09:26N 53°54' E 007°51'0 0.1
2018-Jan-18 08:56N 53°54' E 007°51'0 0.2
2018-Jan-18 08:26N 53°54' E 007°51'0 0.1
2018-Jan-18 07:44N 53°54' E 007°51'0 0.1
2018-Jan-18 07:26N 53°54' E 007°51'0 0.1
2018-Jan-18 06:56N 53°54' E 007°51'0 0.1
2018-Jan-18 06:26N 53°54' E 007°51'0 0.1
2018-Jan-18 05:56N 53°54' E 007°52'0 0.0
2018-Jan-18 05:20N 53°54' E 007°52'0 0.0
2018-Jan-18 04:50N 53°54' E 007°52'0 0.0
2018-Jan-18 04:26N 53°54' E 007°52'0 0.1
2018-Jan-18 03:56N 53°54' E 007°51'0 0.1
2018-Jan-18 03:26N 53°54' E 007°52'0 0.0
2018-Jan-18 02:56N 53°54' E 007°52'0 0.1
2018-Jan-18 02:26N 53°54' E 007°52'0 0.1
2018-Jan-18 01:56N 53°54' E 007°52'0 0.1
2018-Jan-18 01:26N 53°54' E 007°52'0 0.1
2018-Jan-18 00:56N 53°54' E 007°52'0 0.0
2018-Jan-17 23:56N 53°54' E 007°52'  
Track history (hours):
 
Tides and Currents Weather Stations Pressure Air Temp Water Temp Dewpoint Dewpoint Depression Visibility Wind Speed Wind Dir Waves Ship Positions

Jsp Bora

Last reported at 2018-Jan-23 02:05 UTC. Time now 2018-Jan-23 13:56 UTC.
Position N 57°48' E 010°15'.

Length 148 m; draft 8.5 m.

Type: Ship (hazmat cat A). MMSI: 305079000.

Date/timePositionNaut miles runAvg speedWind from/ knotsBaromVisibWave heightAir tempDewpointWater temp
2018-Jan-23 02:05N 57°48' E 010°15'113.1
2018-Jan-23 02:00N 57°48' E 010°17'713.5
2018-Jan-23 01:30N 57°50' E 010°29'713.9
2018-Jan-23 01:00N 57°49' E 010°42'713.7
2018-Jan-23 00:30N 57°47' E 010°54'714.8
2018-Jan-23 00:00N 57°44' E 011°06'714.9
2018-Jan-22 23:30N 57°40' E 011°19'714.5
2018-Jan-22 23:00N 57°37' E 011°31'611.0
2018-Jan-22 22:30N 57°38' E 011°41'612.7
2018-Jan-22 22:00N 57°41' E 011°51'0 0.9
2018-Jan-22 21:30N 57°41' E 011°52'0 0.0
2018-Jan-22 21:00N 57°41' E 011°52'0 0.0
2018-Jan-22 20:31N 57°41' E 011°52'0 0.0
2018-Jan-22 20:00N 57°41' E 011°52'0 0.0
2018-Jan-22 19:30N 57°41' E 011°52'0 0.0
2018-Jan-22 19:00N 57°41' E 011°52'0 0.0
2018-Jan-22 18:31N 57°41' E 011°52'0 0.0
2018-Jan-22 18:01N 57°41' E 011°52'0 0.0
2018-Jan-22 17:30N 57°41' E 011°52'0 0.0
2018-Jan-22 17:00N 57°41' E 011°52'0 0.0
2018-Jan-22 16:30N 57°41' E 011°52'0 0.0
2018-Jan-22 16:00N 57°41' E 011°52'0 0.0
2018-Jan-22 15:30N 57°41' E 011°52'0 0.0
2018-Jan-22 15:00N 57°41' E 011°52'0 0.0
2018-Jan-22 14:30N 57°41' E 011°52'0 0.0
2018-Jan-22 14:00N 57°41' E 011°52'0 0.0
2018-Jan-22 13:30N 57°41' E 011°52'0 0.0
2018-Jan-22 13:00N 57°41' E 011°52'0 0.0
2018-Jan-22 12:30N 57°41' E 011°52'0 0.0
2018-Jan-22 12:00N 57°41' E 011°52'0 0.0
2018-Jan-22 11:30N 57°41' E 011°52'0 0.0
2018-Jan-22 11:00N 57°41' E 011°52'0 0.0
2018-Jan-22 10:30N 57°41' E 011°52'0 0.0
2018-Jan-22 10:00N 57°41' E 011°52'0 0.0
2018-Jan-22 09:30N 57°41' E 011°52'0 0.0
2018-Jan-22 08:57N 57°41' E 011°52'0 0.0
2018-Jan-22 08:27N 57°41' E 011°52'0 0.0
2018-Jan-22 07:57N 57°41' E 011°52'0 0.0
2018-Jan-22 07:27N 57°41' E 011°52'0 0.0
2018-Jan-22 06:57N 57°41' E 011°52'0 0.0
2018-Jan-22 06:27N 57°41' E 011°52'0 0.0
2018-Jan-22 05:57N 57°41' E 011°52'0 0.0
2018-Jan-22 05:30N 57°41' E 011°52'1 2.8
2018-Jan-22 05:00N 57°41' E 011°49'612.6
2018-Jan-22 04:30N 57°37' E 011°40'5 9.4
2018-Jan-22 04:00N 57°32' E 011°38'510.3
2018-Jan-22 03:30N 57°27' E 011°37'510.5
2018-Jan-22 03:00N 57°22' E 011°37'510.5
2018-Jan-22 02:30N 57°17' E 011°36'510.1
2018-Jan-22 02:00N 57°12' E 011°38'510.4
2018-Jan-22 01:30N 57°07' E 011°41'510.7
2018-Jan-22 01:00N 57°02' E 011°44'610.6
2018-Jan-22 00:29N 56°56' E 011°48'610.4
2018-Jan-21 23:54N 56°51' E 011°51'66 8.2
2018-Jan-21 15:54N 56°07' E 010°22'5 3.7
2018-Jan-21 14:38N 56°09' E 010°14'0 0.1
2018-Jan-21 14:29N 56°09' E 010°14'0 0.0
2018-Jan-21 08:08N 56°09' E 010°14'0 0.0
2018-Jan-21 07:50N 56°09' E 010°14'0 0.1
2018-Jan-21 07:26N 56°09' E 010°14'0 0.3
2018-Jan-21 06:59N 56°09' E 010°14'0 0.3
2018-Jan-21 06:25N 56°09' E 010°14'0 0.0
2018-Jan-20 21:43N 56°09' E 010°14'0 0.7
2018-Jan-20 21:31N 56°09' E 010°14'4 7.7
2018-Jan-20 21:00N 56°08' E 010°21'914.2
2018-Jan-20 20:22N 56°04' E 010°36'6511.3
2018-Jan-20 14:35N 56°58' E 011°42'214.1
2018-Jan-20 14:29N 56°60' E 011°41'713.9
2018-Jan-20 14:00N 57°06' E 011°37'713.5
2018-Jan-20 13:30N 57°12' E 011°34'714.0
2018-Jan-20 13:00N 57°19' E 011°29'714.1
2018-Jan-20 12:31N 57°25' E 011°24'713.0
2018-Jan-20 12:00N 57°31' E 011°18'613.0
2018-Jan-20 11:30N 57°35' E 011°09'713.1
2018-Jan-20 11:00N 57°40' E 010°60'713.9
2018-Jan-20 10:30N 57°44' E 010°49'613.0
2018-Jan-20 10:00N 57°46' E 010°38'815.2
2018-Jan-20 09:30N 57°45' E 010°24'714.7
2018-Jan-20 09:00N 57°42' E 010°11'14914.1
2018-Jan-19 22:27N 55°48' E 007°17'714.1
2018-Jan-19 21:59N 55°42' E 007°13'714.2
2018-Jan-19 21:30N 55°36' E 007°10'714.2
2018-Jan-19 21:00N 55°29' E 007°06'713.9
2018-Jan-19 20:30N 55°22' E 007°04'713.8
2018-Jan-19 20:00N 55°15' E 007°04'714.0
2018-Jan-19 19:30N 55°08' E 007°03'714.0
2018-Jan-19 19:01N 55°01' E 007°03'714.3
2018-Jan-19 18:30N 54°54' E 007°04'714.4
2018-Jan-19 18:01N 54°47' E 007°04'4414.0
2018-Jan-19 14:53N 54°06' E 007°33'714.3
2018-Jan-19 14:25N 54°01' E 007°39'613.9
2018-Jan-19 13:58N 53°55' E 007°43'612.7
2018-Jan-19 13:30N 53°52' E 007°53'612.6
2018-Jan-19 13:01N 53°51' E 008°03'713.0
2018-Jan-19 12:30N 53°46' E 008°11'612.6
2018-Jan-19 12:00N 53°42' E 008°19'612.0
2018-Jan-19 11:31N 53°38' E 008°26'4 7.4
2018-Jan-19 10:59N 53°36' E 008°31'0 0.0
2018-Jan-19 10:29N 53°36' E 008°31'0 0.0
2018-Jan-19 09:59N 53°36' E 008°31'0 0.0
2018-Jan-19 09:29N 53°36' E 008°31'0 0.0
2018-Jan-19 08:59N 53°36' E 008°31'0 0.0
2018-Jan-19 08:29N 53°36' E 008°31'0 0.0
2018-Jan-19 07:59N 53°36' E 008°31'0 0.0
2018-Jan-19 07:29N 53°36' E 008°31'0 0.0
2018-Jan-19 06:59N 53°36' E 008°31'0 0.0
2018-Jan-19 06:29N 53°36' E 008°31'0 0.0
2018-Jan-19 05:59N 53°36' E 008°31'0 0.0
2018-Jan-19 05:29N 53°36' E 008°31'0 0.0
2018-Jan-19 04:59N 53°36' E 008°31'0 0.0
2018-Jan-19 04:29N 53°36' E 008°31'0 0.0
2018-Jan-19 03:59N 53°36' E 008°31'0 0.0
2018-Jan-19 03:29N 53°36' E 008°31'0 0.0
2018-Jan-19 02:59N 53°36' E 008°31'0 0.0
2018-Jan-19 02:29N 53°36' E 008°31'0 0.0
2018-Jan-19 01:59N 53°36' E 008°31'0 0.0
2018-Jan-19 01:30N 53°36' E 008°31'3 4.9
2018-Jan-19 00:59N 53°37' E 008°28'715.1
2018-Jan-19 00:31N 53°42' E 008°19'815.2
2018-Jan-19 00:00N 53°47' E 008°09'714.6
2018-Jan-18 23:30N 53°51' E 007°59'510.4
2018-Jan-18 23:00N 53°54' E 007°52'0 0.1
2018-Jan-18 22:26N 53°54' E 007°52'0 0.0
2018-Jan-18 21:56N 53°54' E 007°52'0 0.0
2018-Jan-18 21:26N 53°54' E 007°52'0 0.0
2018-Jan-18 20:56N 53°54' E 007°52'0 0.1
2018-Jan-18 20:26N 53°54' E 007°52'0 0.0
2018-Jan-18 19:56N 53°54' E 007°52'0 0.0
2018-Jan-18 19:26N 53°54' E 007°52'0 0.0
2018-Jan-18 18:56N 53°54' E 007°52'0 0.0
2018-Jan-18 18:26N 53°54' E 007°52'0 0.0
2018-Jan-18 17:56N 53°54' E 007°52'0 0.1
2018-Jan-18 17:26N 53°54' E 007°52'0 0.0
2018-Jan-18 16:56N 53°54' E 007°52'0 0.1
2018-Jan-18 16:26N 53°54' E 007°52'0 0.3
2018-Jan-18 15:56N 53°54' E 007°51'0 0.0
2018-Jan-18 15:26N 53°54' E 007°51'0 0.1
2018-Jan-18 14:08N 53°54' E 007°51'0 0.0
2018-Jan-18 13:44N 53°54' E 007°51'0 0.0
2018-Jan-18 13:20N 53°54' E 007°51'0 0.1
2018-Jan-18 12:50N 53°54' E 007°51'0 0.1
2018-Jan-18 12:08N 53°54' E 007°51'0 0.1
2018-Jan-18 11:44N 53°54' E 007°51'0 0.2
2018-Jan-18 11:20N 53°54' E 007°51'0 0.0
2018-Jan-18 10:50N 53°54' E 007°51'0 0.0
2018-Jan-18 10:26N 53°54' E 007°51'0 0.2
2018-Jan-18 09:50N 53°54' E 007°51'0 0.0
2018-Jan-18 09:26N 53°54' E 007°51'0 0.1
2018-Jan-18 08:56N 53°54' E 007°51'0 0.2
2018-Jan-18 08:26N 53°54' E 007°51'0 0.1
2018-Jan-18 07:44N 53°54' E 007°51'0 0.1
2018-Jan-18 07:26N 53°54' E 007°51'0 0.1
2018-Jan-18 06:56N 53°54' E 007°51'0 0.1
2018-Jan-18 06:26N 53°54' E 007°51'0 0.1
2018-Jan-18 05:56N 53°54' E 007°52'0 0.0
2018-Jan-18 05:20N 53°54' E 007°52'0 0.0
2018-Jan-18 04:50N 53°54' E 007°52'0 0.0
2018-Jan-18 04:26N 53°54' E 007°52'0 0.1
2018-Jan-18 03:56N 53°54' E 007°51'0 0.1
2018-Jan-18 03:26N 53°54' E 007°52'0 0.0
2018-Jan-18 02:56N 53°54' E 007°52'0 0.1
2018-Jan-18 02:26N 53°54' E 007°52'0 0.1
2018-Jan-18 01:56N 53°54' E 007°52'0 0.1
2018-Jan-18 01:26N 53°54' E 007°52'0 0.1
2018-Jan-18 00:56N 53°54' E 007°52'0 0.0
2018-Jan-17 23:56N 53°54' E 007°52'  

Dump ship's entire track history